sensor_id;sensor_type;location;lat;lon;timestamp;pressure;altitude;pressure_sealevel;temperature;humidity
26178;BME280;13924;47.670;10.310;2023-01-30T00:04:41;93870;;;-4.5;100.0
26178;BME280;13924;47.670;10.310;2023-01-30T00:09:51;93870;;;-4.5;100.0
26178;BME280;13924;47.670;10.310;2023-01-30T00:15:06;93870;;;-4.5;100.0
26178;BME280;13924;47.670;10.310;2023-01-30T00:20:17;93830;;;-4.3;100.0
26178;BME280;13924;47.670;10.310;2023-01-30T00:36:17;93830;;;-4.3;100.0
26178;BME280;13924;47.670;10.310;2023-01-30T00:41:29;93800;;;-4.0;100.0
26178;BME280;13924;47.670;10.310;2023-01-30T00:52:09;93780;;;-3.9;100.0
26178;BME280;13924;47.670;10.310;2023-01-30T01:08:18;93750;;;-3.8;100.0
26178;BME280;13924;47.670;10.310;2023-01-30T01:29:54;93750;;;-4.0;100.0
26178;BME280;13924;47.670;10.310;2023-01-30T01:35:00;93770;;;-4.3;100.0
26178;BME280;13924;47.670;10.310;2023-01-30T01:40:19;93770;;;-4.3;100.0
26178;BME280;13924;47.670;10.310;2023-01-30T01:50:54;93740;;;-3.8;100.0
26178;BME280;13924;47.670;10.310;2023-01-30T01:56:06;93740;;;-3.8;100.0
26178;BME280;13924;47.670;10.310;2023-01-30T02:06:47;93730;;;-4.5;100.0
26178;BME280;13924;47.670;10.310;2023-01-30T02:12:02;93730;;;-4.5;100.0
26178;BME280;13924;47.670;10.310;2023-01-30T02:17:13;93730;;;-4.5;100.0
26178;BME280;13924;47.670;10.310;2023-01-30T02:22:57;93730;;;-4.5;100.0
26178;BME280;13924;47.670;10.310;2023-01-30T02:27:56;93740;;;-4.4;100.0
26178;BME280;13924;47.670;10.310;2023-01-30T02:33:00;93740;;;-4.4;100.0
26178;BME280;13924;47.670;10.310;2023-01-30T02:38:21;93740;;;-4.4;100.0
26178;BME280;13924;47.670;10.310;2023-01-30T02:43:26;93750;;;-4.2;100.0
26178;BME280;13924;47.670;10.310;2023-01-30T02:48:36;93740;;;-4.3;100.0
26178;BME280;13924;47.670;10.310;2023-01-30T03:04:34;93750;;;-4.2;100.0
26178;BME280;13924;47.670;10.310;2023-01-30T03:09:43;93730;;;-3.9;100.0
26178;BME280;13924;47.670;10.310;2023-01-30T03:20:18;93740;;;-3.8;100.0
26178;BME280;13924;47.670;10.310;2023-01-30T03:41:39;93750;;;-3.9;100.0
26178;BME280;13924;47.670;10.310;2023-01-30T03:46:52;93750;;;-3.9;100.0
26178;BME280;13924;47.670;10.310;2023-01-30T03:52:02;93780;;;-4.1;100.0
26178;BME280;13924;47.670;10.310;2023-01-30T03:57:11;93770;;;-4.5;100.0
26178;BME280;13924;47.670;10.310;2023-01-30T04:02:19;93740;;;-4.6;100.0
26178;BME280;13924;47.670;10.310;2023-01-30T04:07:35;93740;;;-4.6;100.0
26178;BME280;13924;47.670;10.310;2023-01-30T04:12:48;93770;;;-4.8;100.0
26178;BME280;13924;47.670;10.310;2023-01-30T04:23:23;93740;;;-4.4;100.0
26178;BME280;13924;47.670;10.310;2023-01-30T04:28:36;93740;;;-4.4;100.0
26178;BME280;13924;47.670;10.310;2023-01-30T04:33:51;93740;;;-4.4;100.0
26178;BME280;13924;47.670;10.310;2023-01-30T04:39:03;93750;;;-3.2;100.0
26178;BME280;13924;47.670;10.310;2023-01-30T04:44:14;93750;;;-3.2;100.0
26178;BME280;13924;47.670;10.310;2023-01-30T04:49:26;93720;;;-2.4;100.0
26178;BME280;13924;47.670;10.310;2023-01-30T04:54:36;93740;;;-2.4;100.0
26178;BME280;13924;47.670;10.310;2023-01-30T04:59:47;93730;;;-2.5;100.0
26178;BME280;13924;47.670;10.310;2023-01-30T05:04:59;93680;;;-2.5;100.0
26178;BME280;13924;47.670;10.310;2023-01-30T05:10:12;93680;;;-2.5;100.0
26178;BME280;13924;47.670;10.310;2023-01-30T05:15:24;93640;;;-2.5;100.0
26178;BME280;13924;47.670;10.310;2023-01-30T05:20:35;93610;;;-2.3;100.0
26178;BME280;13924;47.670;10.310;2023-01-30T05:31:10;93600;;;-2.8;100.0
26178;BME280;13924;47.670;10.310;2023-01-30T05:36:18;93620;;;-3.0;100.0
26178;BME280;13924;47.670;10.310;2023-01-30T05:46:57;93590;;;-3.2;100.0
26178;BME280;13924;47.670;10.310;2023-01-30T05:52:09;93590;;;-3.2;100.0
26178;BME280;13924;47.670;10.310;2023-01-30T05:57:25;93590;;;-3.2;100.0
26178;BME280;13924;47.670;10.310;2023-01-30T06:07:56;93600;;;-3.3;100.0
26178;BME280;13924;47.670;10.310;2023-01-30T06:13:07;93620;;;-3.8;100.0
26178;BME280;13924;47.670;10.310;2023-01-30T06:18:19;93600;;;-3.9;100.0
26178;BME280;13924;47.670;10.310;2023-01-30T06:29:04;93600;;;-3.9;100.0
26178;BME280;13924;47.670;10.310;2023-01-30T06:34:16;93600;;;-3.9;100.0
26178;BME280;13924;47.670;10.310;2023-01-30T06:39:26;93620;;;-3.9;100.0
26178;BME280;13924;47.670;10.310;2023-01-30T06:44:42;93620;;;-3.9;100.0
26178;BME280;13924;47.670;10.310;2023-01-30T06:49:52;93640;;;-3.0;100.0
26178;BME280;13924;47.670;10.310;2023-01-30T06:55:09;93640;;;-3.0;100.0
26178;BME280;13924;47.670;10.310;2023-01-30T07:00:19;93660;;;-2.9;100.0
26178;BME280;13924;47.670;10.310;2023-01-30T07:05:36;93660;;;-2.9;100.0
26178;BME280;13924;47.670;10.310;2023-01-30T07:16:20;93660;;;-2.9;100.0
26178;BME280;13924;47.670;10.310;2023-01-30T07:21:29;93680;;;-3.1;100.0
26178;BME280;13924;47.670;10.310;2023-01-30T07:26:43;93680;;;-3.1;100.0
26178;BME280;13924;47.670;10.310;2023-01-30T07:31:52;93680;;;-3.1;100.0
26178;BME280;13924;47.670;10.310;2023-01-30T07:37:09;93680;;;-3.1;100.0
26178;BME280;13924;47.670;10.310;2023-01-30T07:42:17;93720;;;-2.9;100.0
26178;BME280;13924;47.670;10.310;2023-01-30T07:47:29;93700;;;-2.8;100.0
26178;BME280;13924;47.670;10.310;2023-01-30T07:52:40;93720;;;-2.7;100.0
26178;BME280;13924;47.670;10.310;2023-01-30T08:08:34;93730;;;-2.5;100.0
26178;BME280;13924;47.670;10.310;2023-01-30T08:13:50;93730;;;-2.5;100.0
26178;BME280;13924;47.670;10.310;2023-01-30T08:19:04;93750;;;-2.6;100.0
26178;BME280;13924;47.670;10.310;2023-01-30T08:24:18;93750;;;-2.6;100.0
26178;BME280;13924;47.670;10.310;2023-01-30T08:45:39;93770;;;-2.2;100.0
26178;BME280;13924;47.670;10.310;2023-01-30T08:50:50;93780;;;-2.5;100.0
26178;BME280;13924;47.670;10.310;2023-01-30T08:55:58;93820;;;-2.3;100.0
26178;BME280;13924;47.670;10.310;2023-01-30T09:01:11;93790;;;-2.1;100.0
26178;BME280;13924;47.670;10.310;2023-01-30T09:06:21;93770;;;-2.3;100.0
26178;BME280;13924;47.670;10.310;2023-01-30T09:11:33;93750;;;-2.4;100.0
26178;BME280;13924;47.670;10.310;2023-01-30T09:16:44;93770;;;-2.3;100.0
26178;BME280;13924;47.670;10.310;2023-01-30T09:21:56;93750;;;-2.1;100.0
26178;BME280;13924;47.670;10.310;2023-01-30T09:27:07;93780;;;-2.0;100.0
26178;BME280;13924;47.670;10.310;2023-01-30T09:32:19;93730;;;-1.8;100.0
26178;BME280;13924;47.670;10.310;2023-01-30T09:37:33;93730;;;-1.8;100.0
26178;BME280;13924;47.670;10.310;2023-01-30T09:43:01;93730;;;-1.8;100.0
26178;BME280;13924;47.670;10.310;2023-01-30T09:48:13;93730;;;-1.8;100.0
26178;BME280;13924;47.670;10.310;2023-01-30T09:53:22;93750;;;-0.6;100.0
26178;BME280;13924;47.670;10.310;2023-01-30T09:58:36;93730;;;-0.8;100.0
26178;BME280;13924;47.670;10.310;2023-01-30T10:03:53;93730;;;-0.8;100.0
26178;BME280;13924;47.670;10.310;2023-01-30T10:08:57;93700;;;-0.2;100.0
26178;BME280;13924;47.670;10.310;2023-01-30T10:14:19;93680;;;-0.1;100.0
26178;BME280;13924;47.670;10.310;2023-01-30T10:19:35;93680;;;-0.1;100.0
26178;BME280;13924;47.670;10.310;2023-01-30T10:24:44;93700;;;0.9;100.0
26178;BME280;13924;47.670;10.310;2023-01-30T10:35:12;93680;;;0.8;100.0
26178;BME280;13924;47.670;10.310;2023-01-30T10:40:28;93660;;;1.2;100.0
26178;BME280;13924;47.670;10.310;2023-01-30T10:45:35;93640;;;1.5;100.0
26178;BME280;13924;47.670;10.310;2023-01-30T10:50:46;93630;;;1.4;100.0
26178;BME280;13924;47.670;10.310;2023-01-30T10:55:53;93640;;;1.2;100.0
26178;BME280;13924;47.670;10.310;2023-01-30T11:01:00;93630;;;1.2;100.0
26178;BME280;13924;47.670;10.310;2023-01-30T11:11:33;93600;;;0.9;100.0
26178;BME280;13924;47.670;10.310;2023-01-30T11:16:46;93600;;;0.9;100.0
26178;BME280;13924;47.670;10.310;2023-01-30T11:27:20;93570;;;1.1;100.0
26178;BME280;13924;47.670;10.310;2023-01-30T11:32:28;93540;;;1.6;100.0
26178;BME280;13924;47.670;10.310;2023-01-30T11:37:40;93540;;;1.6;100.0
26178;BME280;13924;47.670;10.310;2023-01-30T11:48:19;93530;;;1.5;100.0
26178;BME280;13924;47.670;10.310;2023-01-30T12:09:32;93500;;;3.1;100.0
26178;BME280;13924;47.670;10.310;2023-01-30T12:14:41;93530;;;2.6;100.0
26178;BME280;13924;47.670;10.310;2023-01-30T12:25:19;93530;;;2.6;100.0
26178;BME280;13924;47.670;10.310;2023-01-30T12:30:34;93510;;;2.1;100.0
26178;BME280;13924;47.670;10.310;2023-01-30T12:35:49;93510;;;2.1;100.0
26178;BME280;13924;47.670;10.310;2023-01-30T12:46:26;93500;;;2.0;100.0
26178;BME280;13924;47.670;10.310;2023-01-30T12:57:08;93480;;;2.1;100.0
26178;BME280;13924;47.670;10.310;2023-01-30T13:02:13;93500;;;2.2;100.0
26178;BME280;13924;47.670;10.310;2023-01-30T13:12:33;93520;;;2.5;100.0
26178;BME280;13924;47.670;10.310;2023-01-30T13:17:53;93500;;;2.4;100.0
26178;BME280;13924;47.670;10.310;2023-01-30T13:22:54;93480;;;2.3;100.0
26178;BME280;13924;47.670;10.310;2023-01-30T13:33:24;93500;;;2.2;100.0
26178;BME280;13924;47.670;10.310;2023-01-30T13:43:53;93470;;;2.1;100.0
26178;BME280;13924;47.670;10.310;2023-01-30T13:49:10;93510;;;2.0;100.0
26178;BME280;13924;47.670;10.310;2023-01-30T14:04:58;93510;;;2.0;100.0
26178;BME280;13924;47.670;10.310;2023-01-30T14:10:14;93520;;;1.4;100.0
26178;BME280;13924;47.670;10.310;2023-01-30T14:15:25;93570;;;1.3;100.0
26178;BME280;13924;47.670;10.310;2023-01-30T14:25:50;93620;;;1.1;100.0
26178;BME280;13924;47.670;10.310;2023-01-30T14:31:06;93620;;;1.1;100.0
26178;BME280;13924;47.670;10.310;2023-01-30T14:36:34;93680;;;0.9;100.0
26178;BME280;13924;47.670;10.310;2023-01-30T14:41:26;93690;;;0.9;100.0
26178;BME280;13924;47.670;10.310;2023-01-30T14:46:43;93690;;;0.9;100.0
26178;BME280;13924;47.670;10.310;2023-01-30T15:02:33;93700;;;1.0;100.0
26178;BME280;13924;47.670;10.310;2023-01-30T15:07:49;93700;;;1.0;100.0
26178;BME280;13924;47.670;10.310;2023-01-30T15:13:12;93720;;;1.0;100.0
26178;BME280;13924;47.670;10.310;2023-01-30T15:18:22;93770;;;0.9;100.0
26178;BME280;13924;47.670;10.310;2023-01-30T15:23:41;93780;;;0.9;100.0
26178;BME280;13924;47.670;10.310;2023-01-30T15:28:41;93810;;;0.9;100.0
26178;BME280;13924;47.670;10.310;2023-01-30T15:39:05;93860;;;0.9;100.0
26178;BME280;13924;47.670;10.310;2023-01-30T15:44:35;93900;;;0.9;100.0
26178;BME280;13924;47.670;10.310;2023-01-30T15:49:41;93980;;;0.8;100.0
26178;BME280;13924;47.670;10.310;2023-01-30T15:54:47;94110;;;0.7;100.0
26178;BME280;13924;47.670;10.310;2023-01-30T15:59:47;94210;;;0.6;100.0
26178;BME280;13924;47.670;10.310;2023-01-30T16:05:12;94270;;;0.6;100.0
26178;BME280;13924;47.670;10.310;2023-01-30T16:10:13;94300;;;0.6;100.0
26178;BME280;13924;47.670;10.310;2023-01-30T16:15:26;94310;;;0.5;100.0
26178;BME280;13924;47.670;10.310;2023-01-30T16:25:52;94340;;;0.5;100.0
26178;BME280;13924;47.670;10.310;2023-01-30T16:36:38;94340;;;0.5;100.0
26178;BME280;13924;47.670;10.310;2023-01-30T16:46:59;94380;;;0.6;100.0
26178;BME280;13924;47.670;10.310;2023-01-30T16:57:31;94410;;;0.6;100.0
26178;BME280;13924;47.670;10.310;2023-01-30T17:02:40;94420;;;0.6;100.0
26178;BME280;13924;47.670;10.310;2023-01-30T17:07:50;94400;;;0.5;100.0
26178;BME280;13924;47.670;10.310;2023-01-30T17:13:29;94400;;;0.5;100.0
26178;BME280;13924;47.670;10.310;2023-01-30T17:18:18;94450;;;0.7;100.0
26178;BME280;13924;47.670;10.310;2023-01-30T17:23:29;94440;;;0.7;100.0
26178;BME280;13924;47.670;10.310;2023-01-30T17:28:40;94390;;;0.8;100.0
26178;BME280;13924;47.670;10.310;2023-01-30T17:39:15;94410;;;0.6;100.0
26178;BME280;13924;47.670;10.310;2023-01-30T17:44:27;94410;;;0.6;100.0
26178;BME280;13924;47.670;10.310;2023-01-30T17:49:37;94380;;;0.7;100.0
26178;BME280;13924;47.670;10.310;2023-01-30T17:54:52;94380;;;0.7;100.0
26178;BME280;13924;47.670;10.310;2023-01-30T18:00:09;94400;;;0.6;100.0
26178;BME280;13924;47.670;10.310;2023-01-30T18:10:40;94400;;;0.6;100.0
26178;BME280;13924;47.670;10.310;2023-01-30T18:15:57;94400;;;0.6;100.0
26178;BME280;13924;47.670;10.310;2023-01-30T18:21:04;94410;;;0.6;100.0
26178;BME280;13924;47.670;10.310;2023-01-30T18:26:33;94410;;;0.6;100.0
26178;BME280;13924;47.670;10.310;2023-01-30T18:31:49;94410;;;0.6;100.0
26178;BME280;13924;47.670;10.310;2023-01-30T18:37:03;94410;;;0.6;100.0
26178;BME280;13924;47.670;10.310;2023-01-30T18:47:40;94390;;;0.6;100.0
26178;BME280;13924;47.670;10.310;2023-01-30T18:58:13;94380;;;0.6;100.0
26178;BME280;13924;47.670;10.310;2023-01-30T19:03:23;94370;;;0.7;100.0
26178;BME280;13924;47.670;10.310;2023-01-30T19:08:38;94370;;;0.7;100.0
26178;BME280;13924;47.670;10.310;2023-01-30T19:19:12;94390;;;0.6;100.0
26178;BME280;13924;47.670;10.310;2023-01-30T19:24:23;94410;;;0.6;100.0
26178;BME280;13924;47.670;10.310;2023-01-30T19:29:36;94460;;;0.6;100.0
26178;BME280;13924;47.670;10.310;2023-01-30T19:34:46;94440;;;0.6;100.0
26178;BME280;13924;47.670;10.310;2023-01-30T19:50:44;94440;;;0.6;100.0
26178;BME280;13924;47.670;10.310;2023-01-30T19:55:55;94440;;;0.6;100.0
26178;BME280;13924;47.670;10.310;2023-01-30T20:06:31;94440;;;0.6;100.0
26178;BME280;13924;47.670;10.310;2023-01-30T20:11:41;94420;;;0.7;100.0
26178;BME280;13924;47.670;10.310;2023-01-30T20:16:53;94390;;;0.8;100.0
26178;BME280;13924;47.670;10.310;2023-01-30T20:22:07;94390;;;0.8;100.0
26178;BME280;13924;47.670;10.310;2023-01-30T20:27:23;94390;;;0.8;100.0
26178;BME280;13924;47.670;10.310;2023-01-30T20:32:37;94420;;;0.7;100.0
26178;BME280;13924;47.670;10.310;2023-01-30T20:37:52;94440;;;0.7;100.0
26178;BME280;13924;47.670;10.310;2023-01-30T20:43:20;94450;;;0.7;100.0
26178;BME280;13924;47.670;10.310;2023-01-30T20:48:30;94510;;;0.7;100.0
26178;BME280;13924;47.670;10.310;2023-01-30T20:59:06;94510;;;0.7;100.0
26178;BME280;13924;47.670;10.310;2023-01-30T21:09:40;94550;;;0.6;100.0
26178;BME280;13924;47.670;10.310;2023-01-30T21:14:54;94550;;;0.6;100.0
26178;BME280;13924;47.670;10.310;2023-01-30T21:20:06;94570;;;0.7;100.0
26178;BME280;13924;47.670;10.310;2023-01-30T21:25:22;94570;;;0.7;100.0
26178;BME280;13924;47.670;10.310;2023-01-30T21:41:18;94580;;;0.6;100.0
26178;BME280;13924;47.670;10.310;2023-01-30T21:46:39;94580;;;0.6;100.0
26178;BME280;13924;47.670;10.310;2023-01-30T21:57:22;94580;;;0.6;100.0
26178;BME280;13924;47.670;10.310;2023-01-30T22:02:30;94590;;;0.6;100.0
26178;BME280;13924;47.670;10.310;2023-01-30T22:07:40;94610;;;0.6;100.0
26178;BME280;13924;47.670;10.310;2023-01-30T22:28:57;94600;;;0.6;100.0
26178;BME280;13924;47.670;10.310;2023-01-30T22:34:08;94580;;;0.6;100.0
26178;BME280;13924;47.670;10.310;2023-01-30T22:39:22;94580;;;0.6;100.0
26178;BME280;13924;47.670;10.310;2023-01-30T22:44:34;94540;;;0.6;100.0
26178;BME280;13924;47.670;10.310;2023-01-30T22:49:49;94540;;;0.6;100.0
26178;BME280;13924;47.670;10.310;2023-01-30T22:54:59;94580;;;0.5;100.0
26178;BME280;13924;47.670;10.310;2023-01-30T23:00:14;94590;;;0.6;100.0
26178;BME280;13924;47.670;10.310;2023-01-30T23:05:22;94570;;;0.6;100.0
26178;BME280;13924;47.670;10.310;2023-01-30T23:10:38;94570;;;0.6;100.0
26178;BME280;13924;47.670;10.310;2023-01-30T23:15:47;94520;;;0.6;100.0
26178;BME280;13924;47.670;10.310;2023-01-30T23:20:56;94420;;;0.7;100.0
26178;BME280;13924;47.670;10.310;2023-01-30T23:31:29;94440;;;0.6;100.0
26178;BME280;13924;47.670;10.310;2023-01-30T23:36:41;94480;;;0.6;100.0
26178;BME280;13924;47.670;10.310;2023-01-30T23:41:51;94530;;;0.6;100.0
26178;BME280;13924;47.670;10.310;2023-01-30T23:47:02;94550;;;0.6;100.0
26178;BME280;13924;47.670;10.310;2023-01-30T23:57:34;94580;;;0.6;100.0
